sensor_id;sensor_type;location;lat;lon;timestamp;P1;durP1;ratioP1;P2;durP2;ratioP2
68608;SDS011;55581;46.718;7.690;2023-06-24T00:00:08;7.05;;;2.03;;
68608;SDS011;55581;46.718;7.690;2023-06-24T00:02:37;4.68;;;2.05;;
68608;SDS011;55581;46.718;7.690;2023-06-24T00:05:03;7.20;;;2.70;;
68608;SDS011;55581;46.718;7.690;2023-06-24T00:07:33;4.85;;;2.30;;
68608;SDS011;55581;46.718;7.690;2023-06-24T00:10:08;5.43;;;2.70;;
68608;SDS011;55581;46.718;7.690;2023-06-24T00:12:35;5.00;;;2.40;;
68608;SDS011;55581;46.718;7.690;2023-06-24T00:15:00;6.60;;;2.30;;
68608;SDS011;55581;46.718;7.690;2023-06-24T00:17:25;7.07;;;2.57;;
68608;SDS011;55581;46.718;7.690;2023-06-24T00:19:55;5.10;;;2.38;;
68608;SDS011;55581;46.718;7.690;2023-06-24T00:22:20;5.70;;;2.20;;
68608;SDS011;55581;46.718;7.690;2023-06-24T00:24:47;7.27;;;2.70;;
68608;SDS011;55581;46.718;7.690;2023-06-24T00:27:12;6.38;;;2.70;;
68608;SDS011;55581;46.718;7.690;2023-06-24T00:29:38;6.30;;;2.50;;
68608;SDS011;55581;46.718;7.690;2023-06-24T00:32:04;6.00;;;2.95;;
68608;SDS011;55581;46.718;7.690;2023-06-24T00:34:32;5.77;;;2.40;;
68608;SDS011;55581;46.718;7.690;2023-06-24T00:36:58;5.75;;;2.50;;
68608;SDS011;55581;46.718;7.690;2023-06-24T00:39:23;7.43;;;2.67;;
68608;SDS011;55581;46.718;7.690;2023-06-24T00:41:49;5.93;;;2.50;;
68608;SDS011;55581;46.718;7.690;2023-06-24T00:44:14;5.53;;;2.77;;
68608;SDS011;55581;46.718;7.690;2023-06-24T00:46:40;5.38;;;2.40;;
68608;SDS011;55581;46.718;7.690;2023-06-24T00:49:06;4.77;;;2.47;;
68608;SDS011;55581;46.718;7.690;2023-06-24T00:51:33;5.72;;;2.40;;
68608;SDS011;55581;46.718;7.690;2023-06-24T00:54:01;6.13;;;2.28;;
68608;SDS011;55581;46.718;7.690;2023-06-24T00:56:33;5.27;;;2.50;;
68608;SDS011;55581;46.718;7.690;2023-06-24T00:58:59;5.68;;;2.45;;
68608;SDS011;55581;46.718;7.690;2023-06-24T01:01:32;5.60;;;2.92;;
68608;SDS011;55581;46.718;7.690;2023-06-24T01:04:01;7.32;;;2.33;;
68608;SDS011;55581;46.718;7.690;2023-06-24T01:06:28;4.20;;;1.93;;
68608;SDS011;55581;46.718;7.690;2023-06-24T01:08:58;5.07;;;2.33;;
68608;SDS011;55581;46.718;7.690;2023-06-24T01:11:28;5.72;;;2.65;;
68608;SDS011;55581;46.718;7.690;2023-06-24T01:13:54;6.05;;;2.90;;
68608;SDS011;55581;46.718;7.690;2023-06-24T01:33:45;4.73;;;2.00;;
68608;SDS011;55581;46.718;7.690;2023-06-24T01:36:18;7.72;;;2.60;;
68608;SDS011;55581;46.718;7.690;2023-06-24T01:38:51;6.53;;;2.50;;
68608;SDS011;55581;46.718;7.690;2023-06-24T01:41:21;6.70;;;2.45;;
68608;SDS011;55581;46.718;7.690;2023-06-24T01:43:52;5.60;;;2.63;;
68608;SDS011;55581;46.718;7.690;2023-06-24T01:46:22;5.03;;;2.07;;
68608;SDS011;55581;46.718;7.690;2023-06-24T01:48:50;6.55;;;2.83;;
68608;SDS011;55581;46.718;7.690;2023-06-24T01:51:20;5.85;;;2.50;;
68608;SDS011;55581;46.718;7.690;2023-06-24T01:53:53;6.40;;;2.72;;
68608;SDS011;55581;46.718;7.690;2023-06-24T01:56:23;6.35;;;2.22;;
68608;SDS011;55581;46.718;7.690;2023-06-24T01:58:52;7.60;;;2.80;;
68608;SDS011;55581;46.718;7.690;2023-06-24T02:01:19;5.18;;;2.25;;
68608;SDS011;55581;46.718;7.690;2023-06-24T02:03:48;4.38;;;2.22;;
68608;SDS011;55581;46.718;7.690;2023-06-24T02:06:16;8.18;;;2.75;;
68608;SDS011;55581;46.718;7.690;2023-06-24T02:08:43;5.50;;;2.58;;
68608;SDS011;55581;46.718;7.690;2023-06-24T02:11:13;5.47;;;2.47;;
68608;SDS011;55581;46.718;7.690;2023-06-24T02:13:39;4.90;;;2.13;;
68608;SDS011;55581;46.718;7.690;2023-06-24T02:16:07;8.23;;;2.60;;
68608;SDS011;55581;46.718;7.690;2023-06-24T02:18:35;8.32;;;2.60;;
68608;SDS011;55581;46.718;7.690;2023-06-24T02:21:07;6.18;;;2.50;;
68608;SDS011;55581;46.718;7.690;2023-06-24T02:23:33;5.40;;;2.27;;
68608;SDS011;55581;46.718;7.690;2023-06-24T02:26:03;5.32;;;2.35;;
68608;SDS011;55581;46.718;7.690;2023-06-24T02:28:31;8.18;;;2.55;;
68608;SDS011;55581;46.718;7.690;2023-06-24T02:30:58;5.32;;;2.80;;
68608;SDS011;55581;46.718;7.690;2023-06-24T02:33:24;5.65;;;2.72;;
68608;SDS011;55581;46.718;7.690;2023-06-24T02:35:51;6.87;;;2.37;;
68608;SDS011;55581;46.718;7.690;2023-06-24T02:38:20;6.07;;;2.30;;
68608;SDS011;55581;46.718;7.690;2023-06-24T02:40:45;7.40;;;2.70;;
68608;SDS011;55581;46.718;7.690;2023-06-24T02:43:11;5.85;;;2.58;;
68608;SDS011;55581;46.718;7.690;2023-06-24T02:45:37;6.50;;;2.90;;
68608;SDS011;55581;46.718;7.690;2023-06-24T02:48:03;5.85;;;2.40;;
68608;SDS011;55581;46.718;7.690;2023-06-24T02:50:30;5.18;;;2.45;;
68608;SDS011;55581;46.718;7.690;2023-06-24T02:52:58;6.40;;;2.57;;
68608;SDS011;55581;46.718;7.690;2023-06-24T02:55:24;5.30;;;2.63;;
68608;SDS011;55581;46.718;7.690;2023-06-24T02:57:55;5.87;;;2.50;;
68608;SDS011;55581;46.718;7.690;2023-06-24T03:00:21;5.18;;;2.20;;
68608;SDS011;55581;46.718;7.690;2023-06-24T03:02:47;7.25;;;2.40;;
68608;SDS011;55581;46.718;7.690;2023-06-24T03:05:15;5.17;;;2.53;;
68608;SDS011;55581;46.718;7.690;2023-06-24T03:07:41;6.13;;;2.40;;
68608;SDS011;55581;46.718;7.690;2023-06-24T03:10:07;5.28;;;2.45;;
68608;SDS011;55581;46.718;7.690;2023-06-24T03:12:35;5.38;;;2.47;;
68608;SDS011;55581;46.718;7.690;2023-06-24T03:15:03;6.40;;;2.40;;
68608;SDS011;55581;46.718;7.690;2023-06-24T03:17:29;6.53;;;2.80;;
68608;SDS011;55581;46.718;7.690;2023-06-24T03:19:55;5.80;;;2.67;;
68608;SDS011;55581;46.718;7.690;2023-06-24T03:22:21;5.72;;;2.47;;
68608;SDS011;55581;46.718;7.690;2023-06-24T03:24:47;6.93;;;2.80;;
68608;SDS011;55581;46.718;7.690;2023-06-24T03:27:12;5.82;;;2.40;;
68608;SDS011;55581;46.718;7.690;2023-06-24T03:29:37;6.73;;;2.80;;
68608;SDS011;55581;46.718;7.690;2023-06-24T03:32:03;6.67;;;2.90;;
68608;SDS011;55581;46.718;7.690;2023-06-24T03:34:29;5.00;;;2.38;;
68608;SDS011;55581;46.718;7.690;2023-06-24T03:36:54;6.07;;;2.63;;
68608;SDS011;55581;46.718;7.690;2023-06-24T03:39:20;6.43;;;2.77;;
68608;SDS011;55581;46.718;7.690;2023-06-24T03:41:46;6.35;;;2.88;;
68608;SDS011;55581;46.718;7.690;2023-06-24T03:44:11;7.67;;;3.00;;
68608;SDS011;55581;46.718;7.690;2023-06-24T03:46:42;6.15;;;2.63;;
68608;SDS011;55581;46.718;7.690;2023-06-24T03:49:09;8.57;;;2.78;;
68608;SDS011;55581;46.718;7.690;2023-06-24T03:51:35;5.80;;;2.55;;
68608;SDS011;55581;46.718;7.690;2023-06-24T03:54:01;5.40;;;2.50;;
68608;SDS011;55581;46.718;7.690;2023-06-24T03:56:29;5.80;;;2.53;;
68608;SDS011;55581;46.718;7.690;2023-06-24T03:58:54;6.00;;;2.20;;
68608;SDS011;55581;46.718;7.690;2023-06-24T04:01:19;6.10;;;2.80;;
68608;SDS011;55581;46.718;7.690;2023-06-24T04:03:45;5.85;;;2.75;;
68608;SDS011;55581;46.718;7.690;2023-06-24T04:06:11;5.37;;;2.53;;
68608;SDS011;55581;46.718;7.690;2023-06-24T04:08:36;6.00;;;2.60;;
68608;SDS011;55581;46.718;7.690;2023-06-24T04:11:05;5.60;;;2.67;;
68608;SDS011;55581;46.718;7.690;2023-06-24T04:13:32;6.25;;;2.83;;
68608;SDS011;55581;46.718;7.690;2023-06-24T04:15:58;6.40;;;2.42;;
68608;SDS011;55581;46.718;7.690;2023-06-24T04:18:24;6.27;;;2.90;;
68608;SDS011;55581;46.718;7.690;2023-06-24T04:20:49;6.05;;;2.50;;
68608;SDS011;55581;46.718;7.690;2023-06-24T04:23:17;5.70;;;2.53;;
68608;SDS011;55581;46.718;7.690;2023-06-24T04:25:43;7.63;;;2.60;;
68608;SDS011;55581;46.718;7.690;2023-06-24T04:28:11;6.10;;;2.75;;
68608;SDS011;55581;46.718;7.690;2023-06-24T04:30:36;5.30;;;2.47;;
68608;SDS011;55581;46.718;7.690;2023-06-24T04:33:05;7.18;;;2.65;;
68608;SDS011;55581;46.718;7.690;2023-06-24T04:35:32;5.30;;;2.55;;
68608;SDS011;55581;46.718;7.690;2023-06-24T04:37:57;4.97;;;2.63;;
68608;SDS011;55581;46.718;7.690;2023-06-24T04:40:23;5.83;;;2.57;;
68608;SDS011;55581;46.718;7.690;2023-06-24T04:42:48;6.43;;;3.28;;
68608;SDS011;55581;46.718;7.690;2023-06-24T04:45:14;5.63;;;2.63;;
68608;SDS011;55581;46.718;7.690;2023-06-24T04:47:40;6.28;;;2.67;;
68608;SDS011;55581;46.718;7.690;2023-06-24T04:50:06;5.40;;;2.50;;
68608;SDS011;55581;46.718;7.690;2023-06-24T04:52:35;5.40;;;3.13;;
68608;SDS011;55581;46.718;7.690;2023-06-24T04:55:00;6.38;;;2.60;;
68608;SDS011;55581;46.718;7.690;2023-06-24T04:57:29;5.10;;;2.42;;
68608;SDS011;55581;46.718;7.690;2023-06-24T04:59:57;7.57;;;3.30;;
68608;SDS011;55581;46.718;7.690;2023-06-24T05:02:25;6.03;;;3.00;;
68608;SDS011;55581;46.718;7.690;2023-06-24T05:04:51;5.40;;;2.70;;
68608;SDS011;55581;46.718;7.690;2023-06-24T05:07:17;4.90;;;2.60;;
68608;SDS011;55581;46.718;7.690;2023-06-24T05:09:43;5.32;;;2.72;;
68608;SDS011;55581;46.718;7.690;2023-06-24T05:12:10;6.82;;;2.78;;
68608;SDS011;55581;46.718;7.690;2023-06-24T05:14:38;6.18;;;2.78;;
68608;SDS011;55581;46.718;7.690;2023-06-24T05:17:04;7.03;;;2.50;;
68608;SDS011;55581;46.718;7.690;2023-06-24T05:19:31;5.72;;;2.60;;
68608;SDS011;55581;46.718;7.690;2023-06-24T05:21:56;5.47;;;2.43;;
68608;SDS011;55581;46.718;7.690;2023-06-24T05:24:24;5.53;;;2.83;;
68608;SDS011;55581;46.718;7.690;2023-06-24T05:26:50;6.17;;;2.57;;
68608;SDS011;55581;46.718;7.690;2023-06-24T05:29:19;9.20;;;2.47;;
68608;SDS011;55581;46.718;7.690;2023-06-24T05:31:44;6.30;;;2.95;;
68608;SDS011;55581;46.718;7.690;2023-06-24T05:34:12;5.90;;;3.00;;
68608;SDS011;55581;46.718;7.690;2023-06-24T05:36:38;5.37;;;2.70;;
68608;SDS011;55581;46.718;7.690;2023-06-24T05:39:03;12.97;;;3.50;;
68608;SDS011;55581;46.718;7.690;2023-06-24T05:41:34;6.22;;;2.97;;
68608;SDS011;55581;46.718;7.690;2023-06-24T05:44:01;5.95;;;2.90;;
68608;SDS011;55581;46.718;7.690;2023-06-24T05:46:32;5.30;;;2.63;;
68608;SDS011;55581;46.718;7.690;2023-06-24T05:48:58;8.80;;;3.03;;
68608;SDS011;55581;46.718;7.690;2023-06-24T05:51:24;6.40;;;2.83;;
68608;SDS011;55581;46.718;7.690;2023-06-24T05:53:49;5.93;;;2.57;;
68608;SDS011;55581;46.718;7.690;2023-06-24T05:56:14;7.13;;;2.93;;
68608;SDS011;55581;46.718;7.690;2023-06-24T05:58:40;5.60;;;2.80;;
68608;SDS011;55581;46.718;7.690;2023-06-24T06:01:11;5.63;;;2.85;;
68608;SDS011;55581;46.718;7.690;2023-06-24T06:03:37;5.97;;;3.03;;
68608;SDS011;55581;46.718;7.690;2023-06-24T06:06:02;7.72;;;3.17;;
68608;SDS011;55581;46.718;7.690;2023-06-24T06:08:28;5.17;;;2.80;;
68608;SDS011;55581;46.718;7.690;2023-06-24T06:10:53;5.90;;;2.73;;
68608;SDS011;55581;46.718;7.690;2023-06-24T06:13:21;5.70;;;2.67;;
68608;SDS011;55581;46.718;7.690;2023-06-24T06:15:47;8.02;;;3.20;;
68608;SDS011;55581;46.718;7.690;2023-06-24T06:18:12;6.03;;;2.47;;
68608;SDS011;55581;46.718;7.690;2023-06-24T06:20:38;6.13;;;2.88;;
68608;SDS011;55581;46.718;7.690;2023-06-24T06:23:06;5.27;;;2.73;;
68608;SDS011;55581;46.718;7.690;2023-06-24T06:25:31;6.60;;;2.53;;
68608;SDS011;55581;46.718;7.690;2023-06-24T06:27:57;6.18;;;3.35;;
68608;SDS011;55581;46.718;7.690;2023-06-24T06:30:23;5.77;;;2.70;;
68608;SDS011;55581;46.718;7.690;2023-06-24T06:32:50;7.32;;;3.00;;
68608;SDS011;55581;46.718;7.690;2023-06-24T06:35:16;5.90;;;2.60;;
68608;SDS011;55581;46.718;7.690;2023-06-24T06:37:41;5.63;;;2.77;;
68608;SDS011;55581;46.718;7.690;2023-06-24T06:40:07;7.03;;;3.10;;
68608;SDS011;55581;46.718;7.690;2023-06-24T06:42:35;4.70;;;2.40;;
68608;SDS011;55581;46.718;7.690;2023-06-24T06:45:04;6.28;;;2.80;;
68608;SDS011;55581;46.718;7.690;2023-06-24T06:47:30;5.65;;;2.70;;
68608;SDS011;55581;46.718;7.690;2023-06-24T06:49:55;5.50;;;2.63;;
68608;SDS011;55581;46.718;7.690;2023-06-24T06:52:22;7.95;;;3.28;;
68608;SDS011;55581;46.718;7.690;2023-06-24T06:54:47;6.37;;;2.53;;
68608;SDS011;55581;46.718;7.690;2023-06-24T06:57:13;5.85;;;2.58;;
68608;SDS011;55581;46.718;7.690;2023-06-24T06:59:38;5.53;;;2.60;;
68608;SDS011;55581;46.718;7.690;2023-06-24T07:02:04;5.30;;;2.93;;
68608;SDS011;55581;46.718;7.690;2023-06-24T07:04:30;5.85;;;2.95;;
68608;SDS011;55581;46.718;7.690;2023-06-24T07:06:56;5.45;;;2.78;;
68608;SDS011;55581;46.718;7.690;2023-06-24T07:09:21;4.83;;;2.40;;
68608;SDS011;55581;46.718;7.690;2023-06-24T07:11:47;5.80;;;3.07;;
68608;SDS011;55581;46.718;7.690;2023-06-24T07:14:12;5.43;;;2.97;;
68608;SDS011;55581;46.718;7.690;2023-06-24T07:16:38;6.75;;;3.40;;
68608;SDS011;55581;46.718;7.690;2023-06-24T07:19:03;8.10;;;3.53;;
68608;SDS011;55581;46.718;7.690;2023-06-24T07:21:28;5.10;;;2.83;;
68608;SDS011;55581;46.718;7.690;2023-06-24T07:23:54;6.80;;;3.43;;
68608;SDS011;55581;46.718;7.690;2023-06-24T07:26:19;6.03;;;3.13;;
68608;SDS011;55581;46.718;7.690;2023-06-24T07:28:47;6.20;;;3.10;;
68608;SDS011;55581;46.718;7.690;2023-06-24T07:31:13;6.75;;;3.03;;
68608;SDS011;55581;46.718;7.690;2023-06-24T07:33:38;7.33;;;3.60;;
68608;SDS011;55581;46.718;7.690;2023-06-24T07:36:04;7.93;;;3.50;;
68608;SDS011;55581;46.718;7.690;2023-06-24T07:38:29;6.35;;;3.38;;
68608;SDS011;55581;46.718;7.690;2023-06-24T07:40:55;7.27;;;2.90;;
68608;SDS011;55581;46.718;7.690;2023-06-24T07:43:20;6.22;;;3.58;;
68608;SDS011;55581;46.718;7.690;2023-06-24T07:45:46;5.50;;;3.17;;
68608;SDS011;55581;46.718;7.690;2023-06-24T07:48:11;8.20;;;3.43;;
68608;SDS011;55581;46.718;7.690;2023-06-24T07:50:37;6.07;;;2.67;;
68608;SDS011;55581;46.718;7.690;2023-06-24T07:53:06;5.83;;;3.30;;
68608;SDS011;55581;46.718;7.690;2023-06-24T07:55:31;8.13;;;3.03;;
68608;SDS011;55581;46.718;7.690;2023-06-24T07:57:57;6.03;;;2.63;;
68608;SDS011;55581;46.718;7.690;2023-06-24T08:00:23;5.53;;;2.67;;
68608;SDS011;55581;46.718;7.690;2023-06-24T08:02:50;7.70;;;3.37;;
68608;SDS011;55581;46.718;7.690;2023-06-24T08:05:16;5.65;;;2.78;;
68608;SDS011;55581;46.718;7.690;2023-06-24T08:07:43;7.22;;;3.28;;
68608;SDS011;55581;46.718;7.690;2023-06-24T08:10:09;6.32;;;3.20;;
68608;SDS011;55581;46.718;7.690;2023-06-24T08:12:35;6.33;;;2.90;;
68608;SDS011;55581;46.718;7.690;2023-06-24T08:15:00;5.40;;;2.90;;
68608;SDS011;55581;46.718;7.690;2023-06-24T08:17:26;6.25;;;2.97;;
68608;SDS011;55581;46.718;7.690;2023-06-24T08:19:51;5.20;;;3.30;;
68608;SDS011;55581;46.718;7.690;2023-06-24T08:22:17;7.67;;;3.50;;
68608;SDS011;55581;46.718;7.690;2023-06-24T08:24:42;5.90;;;3.03;;
68608;SDS011;55581;46.718;7.690;2023-06-24T08:27:07;7.43;;;3.67;;
68608;SDS011;55581;46.718;7.690;2023-06-24T08:29:33;7.50;;;3.08;;
68608;SDS011;55581;46.718;7.690;2023-06-24T08:32:00;5.67;;;2.97;;
68608;SDS011;55581;46.718;7.690;2023-06-24T08:34:26;5.50;;;3.10;;
68608;SDS011;55581;46.718;7.690;2023-06-24T08:36:53;5.13;;;2.53;;
68608;SDS011;55581;46.718;7.690;2023-06-24T08:39:18;5.70;;;2.97;;
68608;SDS011;55581;46.718;7.690;2023-06-24T08:41:43;4.90;;;3.10;;
68608;SDS011;55581;46.718;7.690;2023-06-24T08:44:09;5.90;;;2.70;;
68608;SDS011;55581;46.718;7.690;2023-06-24T08:46:34;5.97;;;3.03;;
68608;SDS011;55581;46.718;7.690;2023-06-24T08:49:05;5.03;;;2.95;;
68608;SDS011;55581;46.718;7.690;2023-06-24T08:51:41;5.77;;;2.67;;
68608;SDS011;55581;46.718;7.690;2023-06-24T08:54:08;5.40;;;3.15;;
68608;SDS011;55581;46.718;7.690;2023-06-24T08:56:35;6.40;;;2.88;;
68608;SDS011;55581;46.718;7.690;2023-06-24T08:59:04;5.28;;;3.10;;
68608;SDS011;55581;46.718;7.690;2023-06-24T09:01:33;6.43;;;3.25;;
68608;SDS011;55581;46.718;7.690;2023-06-24T09:03:59;5.63;;;3.10;;
68608;SDS011;55581;46.718;7.690;2023-06-24T09:06:24;5.65;;;2.75;;
68608;SDS011;55581;46.718;7.690;2023-06-24T09:08:54;5.60;;;3.00;;
68608;SDS011;55581;46.718;7.690;2023-06-24T09:11:23;5.60;;;3.10;;
68608;SDS011;55581;46.718;7.690;2023-06-24T09:13:54;6.13;;;3.23;;
68608;SDS011;55581;46.718;7.690;2023-06-24T09:16:23;5.45;;;3.42;;
68608;SDS011;55581;46.718;7.690;2023-06-24T09:18:49;5.20;;;2.95;;
68608;SDS011;55581;46.718;7.690;2023-06-24T09:21:22;6.03;;;3.13;;
68608;SDS011;55581;46.718;7.690;2023-06-24T09:23:55;5.43;;;3.08;;
68608;SDS011;55581;46.718;7.690;2023-06-24T09:26:24;5.37;;;3.30;;
68608;SDS011;55581;46.718;7.690;2023-06-24T09:28:50;4.93;;;2.88;;
68608;SDS011;55581;46.718;7.690;2023-06-24T09:31:16;5.57;;;3.28;;
68608;SDS011;55581;46.718;7.690;2023-06-24T09:33:42;5.78;;;3.00;;
68608;SDS011;55581;46.718;7.690;2023-06-24T09:36:11;5.17;;;3.10;;
68608;SDS011;55581;46.718;7.690;2023-06-24T09:38:41;6.30;;;3.40;;
68608;SDS011;55581;46.718;7.690;2023-06-24T09:41:08;5.13;;;3.00;;
68608;SDS011;55581;46.718;7.690;2023-06-24T09:43:37;5.45;;;3.10;;
68608;SDS011;55581;46.718;7.690;2023-06-24T09:46:09;6.33;;;3.50;;
68608;SDS011;55581;46.718;7.690;2023-06-24T09:48:34;6.07;;;3.17;;
68608;SDS011;55581;46.718;7.690;2023-06-24T09:51:03;5.13;;;2.83;;
68608;SDS011;55581;46.718;7.690;2023-06-24T09:53:30;5.25;;;3.10;;
68608;SDS011;55581;46.718;7.690;2023-06-24T09:55:57;4.50;;;2.78;;
68608;SDS011;55581;46.718;7.690;2023-06-24T09:58:28;4.97;;;2.58;;
68608;SDS011;55581;46.718;7.690;2023-06-24T10:00:56;5.63;;;3.22;;
68608;SDS011;55581;46.718;7.690;2023-06-24T10:03:25;4.90;;;2.87;;
68608;SDS011;55581;46.718;7.690;2023-06-24T10:05:50;5.20;;;2.90;;
68608;SDS011;55581;46.718;7.690;2023-06-24T10:08:16;6.37;;;3.63;;
68608;SDS011;55581;46.718;7.690;2023-06-24T10:10:43;5.38;;;3.20;;
68608;SDS011;55581;46.718;7.690;2023-06-24T10:13:09;6.17;;;3.80;;
68608;SDS011;55581;46.718;7.690;2023-06-24T10:15:35;5.30;;;3.10;;
68608;SDS011;55581;46.718;7.690;2023-06-24T10:18:02;6.25;;;3.10;;
68608;SDS011;55581;46.718;7.690;2023-06-24T10:20:28;5.23;;;3.00;;
68608;SDS011;55581;46.718;7.690;2023-06-24T10:22:54;6.40;;;3.35;;
68608;SDS011;55581;46.718;7.690;2023-06-24T10:25:23;4.93;;;3.03;;
68608;SDS011;55581;46.718;7.690;2023-06-24T10:27:50;5.07;;;3.33;;
68608;SDS011;55581;46.718;7.690;2023-06-24T10:30:21;5.13;;;3.35;;
68608;SDS011;55581;46.718;7.690;2023-06-24T10:32:52;5.77;;;3.50;;
68608;SDS011;55581;46.718;7.690;2023-06-24T10:35:22;5.53;;;3.75;;
68608;SDS011;55581;46.718;7.690;2023-06-24T10:37:56;5.72;;;3.30;;
68608;SDS011;55581;46.718;7.690;2023-06-24T10:45:49;6.43;;;3.53;;
68608;SDS011;55581;46.718;7.690;2023-06-24T10:48:15;5.25;;;3.45;;
68608;SDS011;55581;46.718;7.690;2023-06-24T10:50:41;5.83;;;3.57;;
68608;SDS011;55581;46.718;7.690;2023-06-24T10:53:07;7.13;;;3.60;;
68608;SDS011;55581;46.718;7.690;2023-06-24T10:55:35;4.85;;;3.17;;
68608;SDS011;55581;46.718;7.690;2023-06-24T10:58:08;6.32;;;3.30;;
68608;SDS011;55581;46.718;7.690;2023-06-24T11:00:34;7.28;;;3.88;;
68608;SDS011;55581;46.718;7.690;2023-06-24T11:05:34;5.95;;;3.08;;
68608;SDS011;55581;46.718;7.690;2023-06-24T11:08:04;6.07;;;3.83;;
68608;SDS011;55581;46.718;7.690;2023-06-24T11:10:30;4.93;;;3.07;;
68608;SDS011;55581;46.718;7.690;2023-06-24T11:12:55;5.30;;;3.25;;
68608;SDS011;55581;46.718;7.690;2023-06-24T11:15:25;5.13;;;3.30;;
68608;SDS011;55581;46.718;7.690;2023-06-24T11:17:51;5.53;;;3.63;;
68608;SDS011;55581;46.718;7.690;2023-06-24T11:20:17;8.80;;;3.50;;
68608;SDS011;55581;46.718;7.690;2023-06-24T11:22:42;5.90;;;3.10;;
68608;SDS011;55581;46.718;7.690;2023-06-24T11:25:20;7.10;;;3.63;;
68608;SDS011;55581;46.718;7.690;2023-06-24T11:27:52;6.03;;;3.55;;
68608;SDS011;55581;46.718;7.690;2023-06-24T11:30:20;5.22;;;3.67;;
68608;SDS011;55581;46.718;7.690;2023-06-24T11:32:48;5.43;;;3.10;;
68608;SDS011;55581;46.718;7.690;2023-06-24T11:35:15;5.93;;;3.63;;
68608;SDS011;55581;46.718;7.690;2023-06-24T11:37:42;5.82;;;3.65;;
68608;SDS011;55581;46.718;7.690;2023-06-24T11:40:10;5.22;;;3.10;;
68608;SDS011;55581;46.718;7.690;2023-06-24T11:42:44;5.50;;;3.17;;
68608;SDS011;55581;46.718;7.690;2023-06-24T11:45:10;5.37;;;3.10;;
68608;SDS011;55581;46.718;7.690;2023-06-24T11:47:37;5.35;;;3.33;;
68608;SDS011;55581;46.718;7.690;2023-06-24T11:50:04;6.28;;;3.13;;
68608;SDS011;55581;46.718;7.690;2023-06-24T11:52:52;7.22;;;3.38;;
68608;SDS011;55581;46.718;7.690;2023-06-24T11:55:25;5.50;;;3.30;;
68608;SDS011;55581;46.718;7.690;2023-06-24T12:02:57;5.45;;;3.35;;
68608;SDS011;55581;46.718;7.690;2023-06-24T12:05:35;4.57;;;2.95;;
68608;SDS011;55581;46.718;7.690;2023-06-24T12:08:07;5.15;;;3.40;;
68608;SDS011;55581;46.718;7.690;2023-06-24T12:10:36;7.40;;;3.00;;
68608;SDS011;55581;46.718;7.690;2023-06-24T12:13:03;6.45;;;3.38;;
68608;SDS011;55581;46.718;7.690;2023-06-24T12:15:36;4.82;;;2.92;;
68608;SDS011;55581;46.718;7.690;2023-06-24T12:18:06;5.13;;;3.47;;
68608;SDS011;55581;46.718;7.690;2023-06-24T12:20:32;4.55;;;2.95;;
68608;SDS011;55581;46.718;7.690;2023-06-24T12:22:59;5.50;;;3.30;;
68608;SDS011;55581;46.718;7.690;2023-06-24T12:25:25;5.53;;;3.78;;
68608;SDS011;55581;46.718;7.690;2023-06-24T12:27:50;4.90;;;3.57;;
68608;SDS011;55581;46.718;7.690;2023-06-24T12:30:18;5.93;;;3.50;;
68608;SDS011;55581;46.718;7.690;2023-06-24T12:32:46;5.60;;;3.53;;
68608;SDS011;55581;46.718;7.690;2023-06-24T12:35:11;5.23;;;3.50;;
68608;SDS011;55581;46.718;7.690;2023-06-24T12:37:39;6.13;;;3.88;;
68608;SDS011;55581;46.718;7.690;2023-06-24T12:40:05;5.23;;;3.30;;
68608;SDS011;55581;46.718;7.690;2023-06-24T12:42:31;6.13;;;3.60;;
68608;SDS011;55581;46.718;7.690;2023-06-24T12:44:57;5.22;;;3.35;;
68608;SDS011;55581;46.718;7.690;2023-06-24T12:47:22;7.40;;;3.33;;
68608;SDS011;55581;46.718;7.690;2023-06-24T12:49:48;6.87;;;3.60;;
68608;SDS011;55581;46.718;7.690;2023-06-24T12:52:16;5.30;;;3.30;;
68608;SDS011;55581;46.718;7.690;2023-06-24T12:54:42;6.07;;;4.30;;
68608;SDS011;55581;46.718;7.690;2023-06-24T12:57:07;5.90;;;3.93;;
68608;SDS011;55581;46.718;7.690;2023-06-24T12:59:35;7.05;;;3.63;;
68608;SDS011;55581;46.718;7.690;2023-06-24T13:02:01;7.03;;;4.18;;
68608;SDS011;55581;46.718;7.690;2023-06-24T13:04:26;5.93;;;3.70;;
68608;SDS011;55581;46.718;7.690;2023-06-24T13:06:53;6.93;;;3.77;;
68608;SDS011;55581;46.718;7.690;2023-06-24T13:09:21;6.38;;;3.53;;
68608;SDS011;55581;46.718;7.690;2023-06-24T13:11:46;8.23;;;3.77;;
68608;SDS011;55581;46.718;7.690;2023-06-24T13:14:14;6.55;;;4.03;;
68608;SDS011;55581;46.718;7.690;2023-06-24T13:16:42;8.00;;;4.07;;
68608;SDS011;55581;46.718;7.690;2023-06-24T13:19:07;8.17;;;3.30;;
68608;SDS011;55581;46.718;7.690;2023-06-24T13:21:33;6.33;;;4.07;;
68608;SDS011;55581;46.718;7.690;2023-06-24T13:23:58;7.40;;;4.50;;
68608;SDS011;55581;46.718;7.690;2023-06-24T13:26:23;7.00;;;4.53;;
68608;SDS011;55581;46.718;7.690;2023-06-24T13:28:49;5.90;;;4.43;;
68608;SDS011;55581;46.718;7.690;2023-06-24T13:31:15;6.43;;;3.75;;
68608;SDS011;55581;46.718;7.690;2023-06-24T13:33:40;7.87;;;4.33;;
68608;SDS011;55581;46.718;7.690;2023-06-24T13:36:06;5.80;;;3.67;;
68608;SDS011;55581;46.718;7.690;2023-06-24T13:38:33;7.03;;;4.07;;
68608;SDS011;55581;46.718;7.690;2023-06-24T13:40:59;6.00;;;3.57;;
68608;SDS011;55581;46.718;7.690;2023-06-24T13:43:24;6.25;;;3.47;;
68608;SDS011;55581;46.718;7.690;2023-06-24T13:45:51;7.03;;;3.77;;
68608;SDS011;55581;46.718;7.690;2023-06-24T13:48:19;6.55;;;3.95;;
68608;SDS011;55581;46.718;7.690;2023-06-24T13:50:44;5.60;;;4.20;;
68608;SDS011;55581;46.718;7.690;2023-06-24T13:53:09;5.87;;;3.97;;
68608;SDS011;55581;46.718;7.690;2023-06-24T13:55:35;6.65;;;3.92;;
68608;SDS011;55581;46.718;7.690;2023-06-24T13:58:01;7.00;;;3.77;;
68608;SDS011;55581;46.718;7.690;2023-06-24T14:00:29;6.00;;;3.80;;
68608;SDS011;55581;46.718;7.690;2023-06-24T14:02:55;6.07;;;3.67;;
68608;SDS011;55581;46.718;7.690;2023-06-24T14:05:20;6.22;;;3.53;;
68608;SDS011;55581;46.718;7.690;2023-06-24T14:07:46;4.87;;;3.53;;
68608;SDS011;55581;46.718;7.690;2023-06-24T14:10:11;6.07;;;4.30;;
68608;SDS011;55581;46.718;7.690;2023-06-24T14:12:37;5.05;;;3.42;;
68608;SDS011;55581;46.718;7.690;2023-06-24T14:15:02;6.57;;;3.50;;
68608;SDS011;55581;46.718;7.690;2023-06-24T14:17:29;5.10;;;3.63;;
68608;SDS011;55581;46.718;7.690;2023-06-24T14:19:54;5.23;;;3.73;;
68608;SDS011;55581;46.718;7.690;2023-06-24T14:22:19;6.13;;;4.10;;
68608;SDS011;55581;46.718;7.690;2023-06-24T14:24:47;5.23;;;3.60;;
68608;SDS011;55581;46.718;7.690;2023-06-24T14:27:12;5.28;;;3.63;;
68608;SDS011;55581;46.718;7.690;2023-06-24T14:29:39;5.73;;;3.97;;
68608;SDS011;55581;46.718;7.690;2023-06-24T14:32:04;6.80;;;3.10;;
68608;SDS011;55581;46.718;7.690;2023-06-24T14:34:30;5.57;;;3.73;;
68608;SDS011;55581;46.718;7.690;2023-06-24T14:36:57;6.43;;;4.00;;
68608;SDS011;55581;46.718;7.690;2023-06-24T14:39:22;5.25;;;3.65;;
68608;SDS011;55581;46.718;7.690;2023-06-24T14:41:48;5.77;;;3.70;;
68608;SDS011;55581;46.718;7.690;2023-06-24T14:44:16;5.25;;;3.40;;
68608;SDS011;55581;46.718;7.690;2023-06-24T14:46:42;5.18;;;3.30;;
68608;SDS011;55581;46.718;7.690;2023-06-24T14:49:07;7.03;;;3.80;;
68608;SDS011;55581;46.718;7.690;2023-06-24T14:51:33;5.90;;;3.73;;
68608;SDS011;55581;46.718;7.690;2023-06-24T14:53:58;6.60;;;3.90;;
68608;SDS011;55581;46.718;7.690;2023-06-24T14:56:24;6.90;;;4.07;;
68608;SDS011;55581;46.718;7.690;2023-06-24T14:58:50;6.33;;;3.67;;
68608;SDS011;55581;46.718;7.690;2023-06-24T15:01:16;5.33;;;3.60;;
68608;SDS011;55581;46.718;7.690;2023-06-24T15:03:42;4.78;;;3.15;;
68608;SDS011;55581;46.718;7.690;2023-06-24T15:06:09;5.07;;;3.13;;
68608;SDS011;55581;46.718;7.690;2023-06-24T15:08:35;5.87;;;3.50;;
68608;SDS011;55581;46.718;7.690;2023-06-24T15:11:00;6.33;;;3.67;;
68608;SDS011;55581;46.718;7.690;2023-06-24T15:13:25;5.47;;;3.88;;
68608;SDS011;55581;46.718;7.690;2023-06-24T15:15:52;5.17;;;3.57;;